Time;durP1;ratioP1;P1;durP2;ratioP2;P2;SDS_P1;SDS_P2;PMS_P1;PMS_P2;Temp;Humidity;BMP_temperature;BMP_pressure;BME280_temperature;BME280_humidity;BME280_pressure;Samples;Min_cycle;Max_cycle;Signal;HPM_P1;HPM_P2
2022/08/21 00:00:19;;;;;;;7.05;5.78;;;;;;;14.03;100.00;101696.47;5032037;28;20033;-72
2022/08/21 00:02:48;;;;;;;8.18;5.80;;;;;;;14.05;100.00;101694.66;5032880;28;20033;-72
2022/08/21 00:05:14;;;;;;;7.78;5.75;;;;;;;14.08;100.00;101692.88;5032615;28;20395;-72
2022/08/21 00:07:40;;;;;;;9.48;6.20;;;;;;;14.09;100.00;101698.06;5031557;28;20057;-72
2022/08/21 00:10:06;;;;;;;7.35;5.88;;;;;;;14.07;100.00;101685.91;5033027;28;20021;-72
2022/08/21 00:12:31;;;;;;;10.38;7.25;;;;;;;14.08;100.00;101698.13;5032703;28;20458;-72
2022/08/21 00:14:57;;;;;;;9.85;7.13;;;;;;;14.01;100.00;101686.91;5032361;28;20041;-72
2022/08/21 00:17:23;;;;;;;9.00;6.60;;;;;;;13.97;100.00;101695.75;5032499;28;20473;-72
2022/08/21 00:19:48;;;;;;;10.23;7.03;;;;;;;13.98;100.00;101687.00;5032621;28;20025;-72
2022/08/21 00:22:13;;;;;;;7.38;6.60;;;;;;;13.96;100.00;101680.91;5032152;28;20025;-72
2022/08/21 00:24:39;;;;;;;10.07;6.57;;;;;;;13.95;100.00;101681.81;5032434;28;20033;-72
2022/08/21 00:27:04;;;;;;;11.38;7.30;;;;;;;13.86;100.00;101682.03;5032778;28;20079;-72
2022/08/21 00:29:29;;;;;;;11.48;7.75;;;;;;;13.75;100.00;101682.28;5031654;28;20018;-72
2022/08/21 00:31:55;;;;;;;11.25;8.30;;;;;;;13.71;100.00;101686.75;5032849;28;20053;-72
2022/08/21 00:34:20;;;;;;;10.13;7.10;;;;;;;13.67;100.00;101676.34;5036294;28;20386;-72
2022/08/21 00:36:45;;;;;;;10.32;7.25;;;;;;;13.64;100.00;101674.69;5036037;28;20021;-72
2022/08/21 00:39:11;;;;;;;8.35;6.85;;;;;;;13.66;100.00;101666.78;5036792;28;20063;-72
2022/08/21 00:41:38;;;;;;;10.38;7.65;;;;;;;13.65;100.00;101673.78;5036415;28;20108;-72
2022/08/21 00:44:06;;;;;;;11.85;8.10;;;;;;;13.59;100.00;101669.53;5035753;28;20103;-72
2022/08/21 00:46:32;;;;;;;9.32;7.35;;;;;;;13.56;100.00;101663.50;5036343;28;20056;-72
2022/08/21 00:48:57;;;;;;;9.82;7.88;;;;;;;13.56;100.00;101669.59;5035477;28;20068;-72
2022/08/21 00:51:28;;;;;;;13.48;8.05;;;;;;;13.52;100.00;101675.81;5036214;28;20080;-72
2022/08/21 00:53:59;;;;;;;8.95;7.30;;;;;;;13.47;100.00;101667.22;5036521;28;20032;-72
2022/08/21 00:56:24;;;;;;;11.23;8.30;;;;;;;13.44;100.00;101667.28;5035359;28;20029;-72
2022/08/21 00:58:51;;;;;;;10.00;8.20;;;;;;;13.37;100.00;101664.81;5036442;28;20539;-72
2022/08/21 01:01:17;;;;;;;11.93;8.18;;;;;;;13.35;100.00;101670.09;5035987;28;20061;-72
2022/08/21 01:03:42;;;;;;;12.07;7.68;;;;;;;13.37;100.00;101664.81;5035165;28;20440;-72
2022/08/21 01:06:08;;;;;;;12.85;8.15;;;;;;;13.35;100.00;101665.72;5036173;28;20030;-72
2022/08/21 01:08:35;;;;;;;12.10;8.05;;;;;;;13.32;100.00;101665.78;5035836;28;20029;-72
2022/08/21 01:11:01;;;;;;;8.38;7.20;;;;;;;13.31;100.00;101669.31;5035281;28;20036;-72
2022/08/21 01:13:31;;;;;;;12.55;7.82;;;;;;;13.34;100.00;101669.25;5035675;28;20021;-72
2022/08/21 01:15:59;;;;;;;9.55;7.72;;;;;;;13.33;100.00;101672.72;5035807;28;20083;-72
2022/08/21 01:18:25;;;;;;;10.73;8.27;;;;;;;13.31;100.00;101671.91;5034906;28;20029;-72
2022/08/21 01:21:02;;;;;;;10.68;7.82;;;;;;;13.31;100.00;101669.31;5035599;28;20076;-72
2022/08/21 01:23:27;;;;;;;10.98;8.48;;;;;;;13.26;100.00;101665.03;5035676;28;20113;-72
2022/08/21 01:25:52;;;;;;;8.63;7.57;;;;;;;13.24;100.00;101661.56;5034891;28;20396;-72
2022/08/21 01:28:20;;;;;;;11.05;8.07;;;;;;;13.22;100.00;101655.50;5035474;28;20037;-72
2022/08/21 01:30:46;;;;;;;13.98;7.95;;;;;;;13.19;100.00;101652.97;5035820;28;20049;-72
2022/08/21 01:33:11;;;;;;;10.30;8.00;;;;;;;13.19;100.00;101663.44;5034921;28;20104;-72
2022/08/21 01:35:37;;;;;;;12.27;8.63;;;;;;;13.18;100.00;101661.69;5035380;28;20036;-72
2022/08/21 01:38:03;;;;;;;9.50;7.65;;;;;;;13.17;100.00;101652.13;5034793;28;20026;-72
2022/08/21 01:40:28;;;;;;;10.88;8.77;;;;;;;13.16;100.00;101660.88;5035154;28;20026;-72
2022/08/21 01:42:53;;;;;;;11.43;8.43;;;;;;;13.17;100.00;101665.22;5035105;28;20037;-72
2022/08/21 01:45:19;;;;;;;13.77;8.00;;;;;;;13.12;100.00;101663.56;5034243;28;20091;-72
2022/08/21 01:47:44;;;;;;;12.65;8.38;;;;;;;13.08;100.00;101669.75;5035376;28;20075;-72
2022/08/21 01:50:13;;;;;;;9.90;8.02;;;;;;;13.04;100.00;101664.59;5035251;28;20033;-72
2022/08/21 01:52:38;;;;;;;9.88;8.88;;;;;;;13.01;100.00;101664.66;5034257;28;20022;-72
2022/08/21 01:55:06;;;;;;;10.95;8.70;;;;;;;12.99;100.00;101661.22;5035109;28;20112;-72
2022/08/21 01:57:32;;;;;;;10.05;8.50;;;;;;;13.06;100.00;101654.97;5034885;28;20034;-72
2022/08/21 01:59:57;;;;;;;15.38;9.18;;;;;;;13.03;100.00;101655.88;5034391;28;20029;-72
2022/08/21 02:02:23;;;;;;;9.90;8.70;;;;;;;13.01;100.00;101649.81;5034947;28;20478;-72
2022/08/21 02:04:48;;;;;;;11.98;8.75;;;;;;;13.00;100.00;101644.63;5035015;28;20129;-72
2022/08/21 02:07:14;;;;;;;14.10;9.07;;;;;;;13.01;100.00;101646.34;5034310;28;20107;-72
2022/08/21 02:09:42;;;;;;;11.23;8.88;;;;;;;12.96;100.00;101633.34;5034655;28;20021;-72
2022/08/21 02:12:08;;;;;;;12.43;8.70;;;;;;;12.97;100.00;101636.84;5034904;28;20041;-72
2022/08/21 02:14:34;;;;;;;12.23;9.63;;;;;;;12.99;100.00;101640.28;5033648;28;20014;-72
2022/08/21 02:16:59;;;;;;;11.77;9.43;;;;;;;12.95;100.00;101633.38;5034980;28;20025;-72
2022/08/21 02:19:25;;;;;;;14.85;9.93;;;;;;;12.87;100.00;101626.53;5034707;28;20465;-72
2022/08/21 02:21:50;;;;;;;10.75;9.27;;;;;;;12.92;100.00;101625.63;5034125;28;20424;-72
2022/08/21 02:24:15;;;;;;;10.27;9.20;;;;;;;12.91;100.00;101637.81;5034238;28;20060;-72
2022/08/21 02:26:41;;;;;;;14.07;9.43;;;;;;;12.87;100.00;101636.16;5034548;28;20033;-72
2022/08/21 02:29:06;;;;;;;12.35;9.80;;;;;;;12.83;100.00;101642.34;5033683;28;20064;-72
2022/08/21 02:31:32;;;;;;;11.60;9.40;;;;;;;12.73;100.00;101631.22;5034464;28;20064;-72
2022/08/21 02:33:57;;;;;;;11.30;9.40;;;;;;;12.75;100.00;101636.38;5034717;28;20045;-72
2022/08/21 02:36:22;;;;;;;11.15;9.90;;;;;;;12.77;100.00;101634.63;5033382;28;20444;-72
2022/08/21 02:38:49;;;;;;;16.42;9.85;;;;;;;12.76;100.00;101639.00;5034445;28;20025;-72
2022/08/21 02:41:17;;;;;;;13.70;10.65;;;;;;;12.77;100.00;101639.84;5033960;28;20026;-72
2022/08/21 02:43:43;;;;;;;14.50;10.63;;;;;;;12.69;100.00;101632.16;5034044;28;20052;-72
2022/08/21 02:46:11;;;;;;;14.60;9.98;;;;;;;12.61;100.00;101627.06;5034236;28;20033;-72
2022/08/21 02:48:40;;;;;;;17.77;10.60;;;;;;;12.65;100.00;101631.38;5033059;28;20029;-72
2022/08/21 02:51:12;;;;;;;14.25;10.00;;;;;;;12.63;100.00;101627.06;5034199;28;20029;-72
2022/08/21 02:53:39;;;;;;;11.98;10.38;;;;;;;12.57;100.00;101628.03;5033996;28;20052;-72
2022/08/21 02:56:08;;;;;;;16.52;11.50;;;;;;;12.54;100.00;101633.31;5032457;28;20091;-72
2022/08/21 02:58:38;;;;;;;16.50;12.35;;;;;;;12.51;100.00;101635.13;5033578;28;20079;-72
2022/08/21 03:01:04;;;;;;;18.15;12.00;;;;;;;12.49;100.00;101634.28;5034109;28;20032;-72
2022/08/21 03:03:30;;;;;;;14.25;12.43;;;;;;;12.46;100.00;101623.88;5033040;28;20109;-72
2022/08/21 03:05:55;;;;;;;17.25;12.25;;;;;;;12.47;100.00;101629.09;5033795;28;20120;-72
2022/08/21 03:08:21;;;;;;;17.58;12.95;;;;;;;12.47;100.00;101636.94;5033557;28;20026;-72
2022/08/21 03:10:50;;;;;;;17.95;13.07;;;;;;;12.44;100.00;101636.13;5032975;28;20028;-72
2022/08/21 03:13:16;;;;;;;15.88;13.65;;;;;;;12.42;100.00;101638.75;5033582;28;20028;-72
2022/08/21 03:15:42;;;;;;;17.00;13.27;;;;;;;12.38;100.00;101632.72;5033829;28;20517;-72
2022/08/21 03:18:09;;;;;;;19.92;13.73;;;;;;;12.38;100.00;101627.50;5032988;28;20056;-72
2022/08/21 03:20:36;;;;;;;16.63;13.02;;;;;;;12.36;100.00;101626.69;5033562;28;20065;-72
2022/08/21 03:23:03;;;;;;;19.15;13.00;;;;;;;12.30;100.00;101613.72;5033349;28;20136;-72
2022/08/21 03:25:31;;;;;;;16.10;12.98;;;;;;;12.35;100.00;101622.31;5032213;28;20052;-72
2022/08/21 03:27:57;;;;;;;18.75;13.30;;;;;;;12.33;100.00;101613.66;5033669;28;20056;-72
2022/08/21 03:30:23;;;;;;;16.52;12.93;;;;;;;12.37;100.00;101624.94;5033281;28;20029;-72
2022/08/21 03:32:48;;;;;;;16.60;12.75;;;;;;;12.31;100.00;101631.13;5032757;28;20385;-72
2022/08/21 03:35:14;;;;;;;17.15;13.13;;;;;;;12.27;100.00;101624.22;5033440;28;20064;-72
2022/08/21 03:37:40;;;;;;;15.73;12.73;;;;;;;12.24;100.00;101621.66;5032172;28;20527;-72
2022/08/21 03:40:07;;;;;;;17.35;13.20;;;;;;;12.24;100.00;101626.03;5033488;28;20025;-72
2022/08/21 03:42:33;;;;;;;16.25;13.65;;;;;;;12.17;100.00;101618.31;5033010;28;20104;-72
2022/08/21 03:44:58;;;;;;;16.70;13.65;;;;;;;12.21;100.00;101621.72;5032103;28;20048;-72
2022/08/21 03:47:24;;;;;;;19.00;12.45;;;;;;;12.17;100.00;101622.69;5032905;28;20544;-72
2022/08/21 03:49:49;;;;;;;18.10;13.23;;;;;;;12.12;100.00;101608.81;5033109;28;20480;-72
2022/08/21 03:52:15;;;;;;;20.90;13.45;;;;;;;12.15;100.00;101617.47;5032238;28;20021;-72
2022/08/21 03:54:41;;;;;;;16.85;12.75;;;;;;;12.12;100.00;101617.50;5033310;28;20034;-72
2022/08/21 03:57:07;;;;;;;15.77;12.90;;;;;;;12.10;100.00;101608.00;5033208;28;20101;-72
2022/08/21 03:59:32;;;;;;;16.63;12.57;;;;;;;12.08;100.00;101610.63;5031810;28;20152;-72
2022/08/21 04:02:00;;;;;;;19.20;13.32;;;;;;;12.11;100.00;101614.94;5033070;28;20029;-72
2022/08/21 04:04:27;;;;;;;17.75;13.63;;;;;;;12.08;100.00;101618.47;5032431;28;20467;-72
2022/08/21 04:06:53;;;;;;;16.90;14.10;;;;;;;12.12;100.00;101616.66;5032132;28;20491;-72
2022/08/21 04:09:19;;;;;;;16.45;13.32;;;;;;;12.11;100.00;101618.41;5032527;28;20021;-72
2022/08/21 04:11:45;;;;;;;18.35;13.43;;;;;;;12.08;100.00;101621.06;5032978;28;20458;-72
2022/08/21 04:14:11;;;;;;;14.75;12.93;;;;;;;12.05;100.00;101618.50;5032141;28;20060;-72
2022/08/21 04:16:40;;;;;;;19.05;13.70;;;;;;;12.03;100.00;101627.25;5032578;28;20025;-72
2022/08/21 04:19:05;;;;;;;18.55;12.98;;;;;;;12.02;100.00;101629.00;5032840;28;20025;-72
2022/08/21 04:21:31;;;;;;;16.02;13.60;;;;;;;12.01;100.00;101622.06;5031591;28;20041;-72
2022/08/21 04:23:58;;;;;;;16.33;12.57;;;;;;;12.02;100.00;101622.94;5032684;28;20080;-72
2022/08/21 04:26:23;;;;;;;18.92;13.25;;;;;;;12.03;100.00;101630.72;5032540;28;20076;-72
2022/08/21 04:28:48;;;;;;;17.40;13.15;;;;;;;11.99;100.00;101633.44;5032104;28;20049;-72
2022/08/21 04:31:14;;;;;;;16.25;13.25;;;;;;;11.99;100.00;101626.44;5032700;28;20416;-72
2022/08/21 04:33:39;;;;;;;17.83;13.45;;;;;;;11.98;100.00;101626.50;5032366;28;20032;-72
2022/08/21 04:36:06;;;;;;;16.85;13.18;;;;;;;11.99;100.00;101641.28;5031710;28;20022;-72
2022/08/21 04:38:32;;;;;;;16.63;13.15;;;;;;;11.95;100.00;101636.09;5032503;28;20053;-72
2022/08/21 04:40:57;;;;;;;17.85;13.50;;;;;;;11.95;100.00;101636.09;5031956;28;20104;-72
2022/08/21 04:43:23;;;;;;;17.30;12.15;;;;;;;11.91;100.00;101636.19;5032211;28;20022;-72
2022/08/21 04:45:49;;;;;;;15.25;13.13;;;;;;;11.94;100.00;101630.91;5032578;28;20029;-72
2022/08/21 04:48:17;;;;;;;17.85;13.00;;;;;;;11.93;100.00;101639.63;5031785;28;20048;-72
2022/08/21 04:50:52;;;;;;;20.55;12.20;;;;;;;11.94;100.00;101638.75;5032448;28;20045;-72
2022/08/21 04:53:27;;;;;;;17.92;12.65;;;;;;;11.93;100.00;101640.50;5032422;28;20055;-72
2022/08/21 04:55:56;;;;;;;17.83;12.40;;;;;;;11.95;100.00;101643.06;5031863;28;20091;-72
2022/08/21 04:58:25;;;;;;;18.10;11.93;;;;;;;11.94;100.00;101647.44;5032152;28;20116;-72
2022/08/21 05:00:53;;;;;;;15.48;12.90;;;;;;;11.93;100.00;101634.38;5032398;28;20045;-71
2022/08/21 05:03:19;;;;;;;15.07;11.38;;;;;;;11.99;100.00;101641.28;5031159;28;20466;-72
2022/08/21 05:05:45;;;;;;;15.98;11.77;;;;;;;12.02;100.00;101649.91;5032386;28;20034;-72
2022/08/21 05:08:14;;;;;;;18.40;11.98;;;;;;;12.07;100.00;101655.09;5032430;28;20104;-72
2022/08/21 05:10:40;;;;;;;15.82;10.98;;;;;;;12.15;100.00;101648.81;5031270;28;20478;-72
2022/08/21 05:13:06;;;;;;;14.77;10.63;;;;;;;12.14;100.00;101654.09;5032457;28;20033;-72
2022/08/21 05:15:32;;;;;;;14.35;10.65;;;;;;;12.21;100.00;101652.22;5031955;28;20084;-72
2022/08/21 05:17:57;;;;;;;14.13;10.65;;;;;;;12.27;100.00;101655.59;5031690;28;20026;-72
2022/08/21 05:20:23;;;;;;;15.73;10.20;;;;;;;12.30;100.00;101659.94;5035847;28;20030;-72
2022/08/21 05:22:48;;;;;;;16.67;10.30;;;;;;;12.34;100.00;101657.22;5035925;28;20025;-72
2022/08/21 05:25:14;;;;;;;12.25;10.15;;;;;;;12.34;100.00;101659.84;5034945;28;20021;-72
2022/08/21 05:27:39;;;;;;;20.35;10.55;;;;;;;12.40;100.00;101657.09;5035434;28;20025;-72
2022/08/21 05:30:07;;;;;;;13.68;9.35;;;;;;;12.45;100.00;101664.84;5034766;28;20108;-72
2022/08/21 05:32:33;;;;;;;14.10;10.52;;;;;;;12.44;100.00;101662.28;5035207;28;20025;-72
2022/08/21 05:34:59;;;;;;;15.75;9.70;;;;;;;12.50;100.00;101662.19;5035672;28;20029;-72
2022/08/21 05:37:24;;;;;;;15.48;9.07;;;;;;;12.55;100.00;101660.31;5034620;28;20086;-72
2022/08/21 05:39:49;;;;;;;14.30;9.68;;;;;;;12.59;100.00;101667.25;5035600;28;20029;-72
2022/08/21 05:42:14;;;;;;;13.00;9.15;;;;;;;12.65;100.00;101659.25;5035676;28;20382;-72
2022/08/21 05:44:42;;;;;;;15.90;9.13;;;;;;;12.65;100.00;101656.63;5034186;28;20171;-72
2022/08/21 05:47:09;;;;;;;11.75;8.95;;;;;;;12.73;100.00;101667.84;5035318;28;20060;-72
2022/08/21 05:49:36;;;;;;;15.90;8.60;;;;;;;12.79;100.00;101659.00;5035133;28;20585;-72
2022/08/21 05:52:03;;;;;;;14.77;7.93;;;;;;;12.85;100.00;101659.75;5034477;28;20022;-72
2022/08/21 05:54:28;;;;;;;12.80;8.13;;;;;;;12.92;100.00;101664.88;5034993;28;20026;-72
2022/08/21 05:56:54;;;;;;;9.75;7.75;;;;;;;12.97;100.00;101660.38;5035286;28;20029;-72
2022/08/21 05:59:19;;;;;;;10.60;7.70;;;;;;;13.01;100.00;101654.19;5034115;28;20496;-72
2022/08/21 06:01:45;;;;;;;15.15;8.27;;;;;;;13.09;100.00;101660.13;5035243;28;20060;-72
2022/08/21 06:04:11;;;;;;;23.17;8.43;;;;;;;13.12;100.00;101657.47;5035179;28;20045;-72
2022/08/21 06:06:36;;;;;;;11.00;7.50;;;;;;;13.21;100.00;101659.88;5034027;28;20434;-72
2022/08/21 06:09:02;;;;;;;16.77;7.38;;;;;;;13.24;100.00;101654.63;5035034;28;20474;-72
2022/08/21 06:11:27;;;;;;;12.68;6.97;;;;;;;13.29;100.00;101655.38;5034611;28;20108;-72
2022/08/21 06:13:53;;;;;;;17.88;7.40;;;;;;;13.39;100.00;101663.88;5034159;28;20113;-72
2022/08/21 06:16:18;;;;;;;10.50;6.82;;;;;;;13.47;100.00;101663.72;5034522;28;20048;-73
2022/08/21 06:18:45;;;;;;;11.82;8.25;;;;;;;13.52;100.00;101670.56;5034942;28;20029;-72
2022/08/21 06:21:11;;;;;;;15.30;8.35;;;;;;;13.56;100.00;101669.59;5033977;28;20452;-72
2022/08/21 06:23:37;;;;;;;14.43;8.18;;;;;;;13.65;100.00;101671.16;5034495;28;20389;-72
2022/08/21 06:26:04;;;;;;;12.13;7.10;;;;;;;13.71;100.00;101667.53;5034611;28;20079;-72
2022/08/21 06:28:30;;;;;;;14.32;7.43;;;;;;;13.77;100.00;101665.63;5033753;28;20033;-72
2022/08/21 06:30:55;;;;;;;12.18;8.07;;;;;;;13.86;100.00;101661.06;5033471;28;20023;-72
2022/08/21 06:33:20;;;;;;;14.77;7.13;;;;;;;13.93;100.00;101662.63;5033847;28;20036;-72
2022/08/21 06:35:46;;;;;;;11.65;6.78;;;;;;;13.97;100.00;101664.31;5034344;28;20018;-72
2022/08/21 06:38:11;;;;;;;15.43;7.30;;;;;;;14.05;100.00;101667.56;5034468;28;20531;-72
2022/08/21 06:40:37;;;;;;;13.70;7.00;;;;;;;14.14;100.00;101656.88;5033306;28;20026;-73
2022/08/21 06:43:12;;;;;;;14.65;7.15;;;;;;;14.24;100.00;101668.00;5034301;28;20029;-72
2022/08/21 06:45:37;;;;;;;12.68;6.68;;;;;;;14.33;100.00;101666.91;5033846;28;20079;-72
2022/08/21 06:48:03;;;;;;;11.90;5.93;;;;;;;14.41;100.00;101667.53;5033353;28;20114;-72
2022/08/21 06:50:28;;;;;;;13.60;6.32;;;;;;;14.51;100.00;101672.53;5034121;28;20022;-72
2022/08/21 06:53:02;;;;;;;11.85;5.30;;;;;;;14.56;100.00;101667.19;5034293;28;20481;-72
2022/08/21 06:55:27;;;;;;;10.73;5.57;;;;;;;14.57;100.00;101657.53;5032953;28;20147;-72
2022/08/21 06:57:53;;;;;;;13.95;5.75;;;;;;;14.66;100.00;101658.16;5033918;28;20056;-72
2022/08/21 07:00:19;;;;;;;10.15;6.07;;;;;;;14.78;100.00;101667.47;5033927;28;20504;-72
2022/08/21 07:02:44;;;;;;;14.77;6.22;;;;;;;14.87;100.00;101668.94;5033351;28;20026;-73
2022/08/21 07:05:10;;;;;;;13.10;6.15;;;;;;;14.95;100.00;101651.22;5033913;28;20113;-72
2022/08/21 07:07:35;;;;;;;15.48;6.45;;;;;;;15.16;100.00;101663.72;5033590;28;20478;-72
2022/08/21 07:10:00;;;;;;;14.07;6.35;;;;;;;15.35;100.00;101655.31;5032989;28;20044;-72
2022/08/21 07:12:26;;;;;;;13.38;6.55;;;;;;;15.50;100.00;101657.47;5033369;28;20056;-72
2022/08/21 07:14:51;;;;;;;12.45;5.57;;;;;;;15.67;100.00;101655.19;5033942;28;20508;-72
2022/08/21 07:17:17;;;;;;;21.23;7.45;;;;;;;15.82;100.00;101656.44;5032533;28;20030;-72
2022/08/21 07:19:42;;;;;;;16.58;6.60;;;;;;;15.98;99.45;101662.06;5033782;28;20072;-72
2022/08/21 07:22:07;;;;;;;14.43;6.78;;;;;;;16.08;100.00;101663.50;5033665;28;20075;-72
2022/08/21 07:24:33;;;;;;;11.18;5.80;;;;;;;16.07;99.17;101658.28;5032323;28;20033;-72
2022/08/21 07:26:58;;;;;;;15.63;5.85;;;;;;;16.06;99.82;101657.44;5033494;28;20053;-72
2022/08/21 07:29:23;;;;;;;15.35;5.95;;;;;;;16.03;99.79;101656.69;5033018;28;20122;-72
2022/08/21 07:31:48;;;;;;;12.93;5.85;;;;;;;16.02;99.93;101663.72;5032860;28;20034;-72
2022/08/21 07:34:14;;;;;;;12.65;6.43;;;;;;;16.10;100.00;101655.56;5033404;28;20021;-73
2022/08/21 07:36:40;;;;;;;14.93;5.85;;;;;;;16.06;100.00;101657.44;5032284;28;20025;-72
2022/08/21 07:39:05;;;;;;;21.60;6.82;;;;;;;16.06;100.00;101660.06;5033378;28;20031;-72
2022/08/21 07:41:31;;;;;;;18.45;7.07;;;;;;;16.13;100.00;101660.72;5032714;28;20021;-73
2022/08/21 07:43:58;;;;;;;15.55;7.07;;;;;;;16.20;100.00;101656.13;5032154;28;20048;-73
2022/08/21 07:46:24;;;;;;;12.32;6.10;;;;;;;16.33;100.00;101660.03;5032981;28;20038;-72
2022/08/21 07:48:50;;;;;;;13.88;6.57;;;;;;;16.43;99.93;101650.91;5033371;28;20021;-73
2022/08/21 07:51:16;;;;;;;16.02;6.47;;;;;;;16.55;99.88;101662.78;5032102;28;20359;-73
2022/08/21 07:53:46;;;;;;;15.93;6.65;;;;;;;16.65;98.38;101655.44;5033049;28;20101;-72
2022/08/21 07:56:12;;;;;;;18.85;6.13;;;;;;;16.76;98.05;101653.28;5033017;28;20071;-72
2022/08/21 07:58:37;;;;;;;16.10;6.68;;;;;;;16.78;95.92;101654.97;5032186;28;20064;-72
2022/08/21 08:01:03;;;;;;;15.23;5.30;;;;;;;16.84;94.88;101653.88;5032993;28;20045;-72
2022/08/21 08:03:28;;;;;;;14.70;6.10;;;;;;;16.92;95.41;101653.59;5032753;28;20529;-73
2022/08/21 08:05:53;;;;;;;12.15;5.40;;;;;;;17.00;94.18;101652.41;5032137;28;20037;-72
2022/08/21 08:08:19;;;;;;;17.25;6.28;;;;;;;17.13;94.28;101654.56;5032604;28;20428;-73
2022/08/21 08:10:45;;;;;;;16.25;5.22;;;;;;;17.22;95.45;101655.06;5032831;28;20022;-73
2022/08/21 08:13:10;;;;;;;13.90;6.00;;;;;;;17.31;92.81;101649.44;5032279;28;20029;-72
2022/08/21 08:15:36;;;;;;;12.05;4.55;;;;;;;17.41;93.50;101654.34;5032510;28;20469;-72
2022/08/21 08:18:02;;;;;;;12.73;4.53;;;;;;;17.49;94.46;101641.72;5032733;28;20025;-72
2022/08/21 08:20:29;;;;;;;16.83;5.82;;;;;;;17.62;91.69;101655.28;5031765;28;20044;-72
2022/08/21 08:22:57;;;;;;;15.48;5.40;;;;;;;17.64;91.51;101645.53;5032785;28;20052;-78
2022/08/21 08:25:24;;;;;;;13.35;5.30;;;;;;;17.74;90.78;101657.44;5032191;28;20063;-79
2022/08/21 08:27:49;;;;;;;16.08;4.80;;;;;;;17.83;90.89;101651.81;5031775;28;20060;-73
2022/08/21 08:30:20;;;;;;;12.70;4.32;;;;;;;17.91;90.07;101652.34;5032762;28;20445;-73
2022/08/21 08:32:46;;;;;;;13.02;4.40;;;;;;;17.98;88.84;101650.31;5032809;28;20067;-73
2022/08/21 08:35:13;;;;;;;17.70;4.80;;;;;;;18.07;89.37;101627.97;5032059;28;20064;-73
2022/08/21 08:37:42;;;;;;;14.07;4.32;;;;;;;18.34;90.86;101649.69;5032354;28;20013;-73
2022/08/21 08:40:24;;;;;;;12.85;3.63;;;;;;;18.51;90.86;101646.31;5031960;28;20026;-73
2022/08/21 08:42:50;;;;;;;12.25;4.18;;;;;;;18.64;88.62;101639.59;5032790;28;20022;-73
2022/08/21 08:45:21;;;;;;;11.32;3.90;;;;;;;18.70;87.74;101640.16;5031972;28;20056;-73
2022/08/21 08:47:55;;;;;;;13.45;4.32;;;;;;;18.91;85.35;101635.72;5031857;28;20021;-73
2022/08/21 08:50:32;;;;;;;14.20;4.30;;;;;;;19.07;83.55;101627.94;5032156;28;20065;-73
2022/08/21 08:53:05;;;;;;;8.10;3.15;;;;;;;19.37;82.36;101632.72;5033061;28;20401;-73
2022/08/21 08:55:39;;;;;;;11.35;3.55;;;;;;;19.56;80.41;101624.75;5035531;28;20373;-73
2022/08/21 08:58:06;;;;;;;9.25;3.67;;;;;;;19.76;80.16;101629.09;5036380;28;20057;-73
2022/08/21 09:00:32;;;;;;;9.32;3.42;;;;;;;19.82;78.48;101608.47;5036006;28;20087;-73
2022/08/21 09:03:01;;;;;;;9.63;3.35;;;;;;;20.07;79.24;101623.97;5035372;28;20021;-73
2022/08/21 09:05:32;;;;;;;10.15;3.60;;;;;;;20.28;77.03;101614.06;5035744;28;20484;-73
2022/08/21 09:08:24;;;;;;;11.20;3.78;;;;;;;20.44;77.33;101600.91;5036403;28;20079;-73
2022/08/21 09:11:12;;;;;;;8.95;2.85;;;;;;;20.63;77.27;101611.38;5036159;28;20038;-73
2022/08/21 09:14:22;;;;;;;9.50;2.47;;;;;;;20.88;76.48;101610.06;5035623;28;20362;-73
2022/08/21 09:17:25;;;;;;;10.82;2.65;;;;;;;21.18;75.33;101595.09;4954934;28;20112;-73
2022/08/21 09:20:09;;;;;;;10.80;3.33;;;;;;;21.48;70.96;101597.88;5035876;28;20033;-73
2022/08/21 09:22:57;;;;;;;7.05;2.67;;;;;;;21.63;71.90;101603.22;5034857;28;20224;-73
2022/08/21 09:25:34;;;;;;;6.15;2.30;;;;;;;21.65;70.08;101606.66;5035460;28;20592;-73
2022/08/21 09:27:59;;;;;;;7.57;2.78;;;;;;;21.45;69.62;101606.00;5035973;28;20034;-73
2022/08/21 09:30:31;;;;;;;7.47;2.13;;;;;;;21.64;72.15;101611.09;5034821;28;20028;-73
2022/08/21 09:32:57;;;;;;;7.75;2.60;;;;;;;21.82;69.70;101601.22;5035847;28;20098;-73
2022/08/21 09:35:24;;;;;;;7.90;2.55;;;;;;;21.62;66.14;101604.19;5035334;28;20068;-73
2022/08/21 09:38:06;;;;;;;7.05;2.22;;;;;;;21.12;68.04;101610.50;5034840;28;20096;-73
2022/08/21 09:40:45;;;;;;;7.65;2.88;;;;;;;20.70;69.20;101623.38;5035207;28;20523;-73
2022/08/21 09:43:10;;;;;;;7.95;2.28;;;;;;;20.30;69.12;101622.78;5035472;28;20049;-73
2022/08/21 09:45:36;;;;;;;5.93;2.03;;;;;;;20.03;70.82;101624.19;5034228;28;20540;-73
2022/08/21 09:48:18;;;;;;;7.75;2.70;;;;;;;20.14;70.76;101616.56;5035465;28;20108;-73
2022/08/21 09:50:45;;;;;;;5.97;1.95;;;;;;;20.34;70.58;101619.06;5034451;28;20021;-73
2022/08/21 09:53:21;;;;;;;8.40;2.30;;;;;;;20.53;70.00;101608.34;5035688;28;20112;-73
2022/08/21 09:58:44;;;;;;;9.07;2.30;;;;;;;20.99;66.71;101605.03;5034413;28;20064;-73
2022/08/21 10:01:16;;;;;;;5.78;2.13;;;;;;;21.40;66.66;101599.25;5035068;28;20071;-73
2022/08/21 10:03:41;;;;;;;8.48;2.78;;;;;;;21.74;66.07;101609.63;5035090;28;20056;-73
2022/08/21 10:06:10;;;;;;;7.43;2.30;;;;;;;21.86;63.84;101601.88;5034188;28;20061;-74
2022/08/21 10:08:38;;;;;;;8.15;2.75;;;;;;;22.03;63.46;101598.22;5034933;28;20031;-73
2022/08/21 10:11:15;;;;;;;8.10;2.67;;;;;;;22.21;63.93;101586.56;5034956;28;20032;-73
2022/08/21 10:14:12;;;;;;;7.07;2.40;;;;;;;22.22;64.92;101603.34;5034149;28;20029;-73
2022/08/21 10:16:37;;;;;;;7.70;2.78;;;;;;;22.25;62.78;101609.31;5034702;28;20093;-73
2022/08/21 10:19:36;;;;;;;6.27;3.03;;;;;;;22.51;65.45;101597.09;5034011;28;20520;-73
2022/08/21 10:22:14;;;;;;;6.57;2.33;;;;;;;22.59;60.28;101610.75;5034779;28;20064;-73
2022/08/21 10:25:03;;;;;;;7.90;2.88;;;;;;;22.52;58.03;101597.94;5034503;28;20160;-73
2022/08/21 10:28:04;;;;;;;6.80;2.20;;;;;;;22.51;59.49;101597.09;5033812;28;20040;-73
2022/08/21 10:30:45;;;;;;;4.90;2.22;;;;;;;22.51;60.31;101597.09;5034213;28;20036;-73
2022/08/21 10:33:26;;;;;;;4.57;2.30;;;;;;;22.70;60.39;101594.16;5033974;28;20049;-73
2022/08/21 10:36:26;;;;;;;5.43;2.75;;;;;;;22.80;60.32;101599.75;5034585;28;20512;-73
2022/08/21 10:38:57;;;;;;;6.10;3.17;;;;;;;22.64;58.30;101592.72;5034710;28;20036;-73
2022/08/21 10:42:10;;;;;;;5.95;2.70;;;;;;;22.43;61.29;101594.03;5033565;28;20033;-74
2022/08/21 10:44:38;;;;;;;8.23;3.40;;;;;;;22.27;61.29;101595.94;4953708;28;20451;-73
2022/08/21 10:47:12;;;;;;;8.13;2.95;;;;;;;22.41;60.00;101591.50;5018148;28;20041;-73
2022/08/21 10:49:46;;;;;;;7.45;3.22;;;;;;;22.78;60.29;101596.31;5033923;28;20065;-73
2022/08/21 10:52:31;;;;;;;6.43;2.75;;;;;;;23.01;60.23;101601.06;5034311;28;20037;-73
2022/08/21 10:55:25;;;;;;;9.68;3.53;;;;;;;23.04;57.70;101590.22;5033401;28;20030;-74
2022/08/21 10:58:13;;;;;;;7.60;3.30;;;;;;;23.24;58.03;101586.28;5034352;28;20104;-73
2022/08/21 11:00:46;;;;;;;6.97;3.03;;;;;;;23.37;55.37;101589.00;5033075;28;20064;-73
2022/08/21 11:03:17;;;;;;;6.43;2.60;;;;;;;23.37;53.67;101589.00;5034178;28;20022;-73
2022/08/21 11:05:57;;;;;;;5.80;3.00;;;;;;;23.33;56.64;101584.84;5033773;28;20448;-73
2022/08/21 11:08:38;;;;;;;5.30;2.60;;;;;;;23.25;58.54;101589.78;5032822;28;20436;-73
2022/08/21 11:11:20;;;;;;;7.47;3.40;;;;;;;23.39;57.75;101588.91;5033917;28;20040;-73
2022/08/21 11:13:51;;;;;;;8.15;3.30;;;;;;;23.51;55.47;101590.75;5034068;28;20381;-73
2022/08/21 11:16:24;;;;;;;6.75;3.08;;;;;;;24.05;55.00;101593.34;5032056;28;20033;-73
2022/08/21 11:19:00;;;;;;;4.85;2.97;;;;;;;24.13;54.54;101592.81;5033853;28;20036;-74
2022/08/21 11:21:52;;;;;;;5.10;2.88;;;;;;;24.32;54.90;101582.59;5033374;28;20094;-74